Time;durP1;ratioP1;P1;durP2;ratioP2;P2;SDS_P1;SDS_P2;PMS_P1;PMS_P2;Temp;Humidity;BMP_temperature;BMP_pressure;BME280_temperature;BME280_humidity;BME280_pressure;Samples;Min_cycle;Max_cycle;Signal;HPM_P1;HPM_P2
2021/06/19 00:01:16;;;;;;;7.97;6.00;;;25.30;99.90;;;;;;5019448;28;20196;-77
2021/06/19 00:03:44;;;;;;;8.95;5.88;;;25.30;99.90;;;;;;5019337;28;20540;-77
2021/06/19 00:06:11;;;;;;;8.20;5.57;;;25.20;99.90;;;;;;5019349;28;20081;-78
2021/06/19 00:08:38;;;;;;;14.02;6.47;;;25.20;99.90;;;;;;5019094;28;20495;-77
2021/06/19 00:11:05;;;;;;;8.07;5.72;;;25.10;99.90;;;;;;5019625;28;20249;-78
2021/06/19 00:13:31;;;;;;;11.40;5.70;;;25.10;99.90;;;;;;5021803;28;20133;-79
2021/06/19 00:15:58;;;;;;;8.88;5.85;;;25.10;99.90;;;;;;5030639;28;20082;-78
2021/06/19 00:18:25;;;;;;;10.32;5.90;;;25.10;99.90;;;;;;5031660;28;20285;-80
2021/06/19 00:20:54;;;;;;;9.60;5.60;;;25.00;99.90;;;;;;5031655;28;20054;-81
2021/06/19 00:23:21;;;;;;;9.40;5.55;;;24.90;99.90;;;;;;5032161;28;20096;-83
2021/06/19 00:25:48;;;;;;;8.73;5.03;;;24.80;99.90;;;;;;5033580;28;20053;-81
2021/06/19 00:28:15;;;;;;;10.43;5.13;;;24.80;99.90;;;;;;5033840;28;20104;-80
2021/06/19 00:30:42;;;;;;;10.25;4.93;;;24.60;99.90;;;;;;5034737;28;20045;-81
2021/06/19 00:33:09;;;;;;;11.70;4.88;;;24.60;99.90;;;;;;5036284;28;20172;-82
2021/06/19 00:35:36;;;;;;;10.95;5.20;;;24.60;99.90;;;;;;5035660;28;20057;-78
2021/06/19 00:38:04;;;;;;;11.68;4.60;;;24.50;99.90;;;;;;5033176;28;20050;-78
2021/06/19 00:40:31;;;;;;;6.88;4.35;;;24.40;99.90;;;;;;5031977;28;20042;-80
2021/06/19 00:43:00;;;;;;;9.30;4.43;;;24.40;99.90;;;;;;5033919;28;20041;-79
2021/06/19 00:45:29;;;;;;;5.90;4.20;;;24.40;99.90;;;;;;5033499;28;20491;-81
2021/06/19 00:47:56;;;;;;;8.00;4.03;;;24.40;99.90;;;;;;5030120;28;20049;-80
2021/06/19 00:50:25;;;;;;;7.15;4.35;;;24.40;99.90;;;;;;5026257;28;20050;-81
2021/06/19 00:52:52;;;;;;;6.10;4.28;;;24.30;99.90;;;;;;5017174;28;20145;-81
2021/06/19 00:55:21;;;;;;;6.72;4.00;;;24.40;99.90;;;;;;5016515;28;20136;-79
2021/06/19 00:57:48;;;;;;;10.32;4.07;;;24.30;99.90;;;;;;5015483;28;20133;-81
2021/06/19 01:00:16;;;;;;;9.32;4.40;;;24.30;99.90;;;;;;5018263;28;20129;-80
2021/06/19 01:02:43;;;;;;;7.20;4.32;;;24.30;99.90;;;;;;5017476;28;20052;-79
2021/06/19 01:05:11;;;;;;;7.05;4.50;;;24.30;99.90;;;;;;5017360;28;20088;-80
2021/06/19 01:07:38;;;;;;;9.23;4.35;;;24.30;99.90;;;;;;5017339;28;20132;-79
2021/06/19 01:10:06;;;;;;;6.10;4.28;;;24.30;99.90;;;;;;5016415;28;20108;-80
2021/06/19 01:12:35;;;;;;;5.60;4.10;;;24.20;99.90;;;;;;5016418;28;20132;-80
2021/06/19 01:15:03;;;;;;;11.05;4.43;;;24.20;99.90;;;;;;5016473;28;20072;-79
2021/06/19 01:17:30;;;;;;;7.47;3.95;;;24.10;99.90;;;;;;5019709;28;20195;-81
2021/06/19 01:20:01;;;;;;;11.25;5.28;;;24.10;99.90;;;;;;5017033;28;20137;-80
2021/06/19 01:22:29;;;;;;;6.88;4.35;;;24.10;99.90;;;;;;5016013;28;20077;-79
2021/06/19 01:24:58;;;;;;;10.43;4.78;;;24.00;99.90;;;;;;5014321;28;20537;-79
2021/06/19 01:27:27;;;;;;;11.55;4.90;;;24.00;99.90;;;;;;5013946;28;20473;-78
2021/06/19 01:29:54;;;;;;;5.80;4.35;;;24.00;99.90;;;;;;5014361;28;20060;-79
2021/06/19 01:32:21;;;;;;;12.20;4.97;;;23.90;99.90;;;;;;5014380;28;20137;-78
2021/06/19 01:34:48;;;;;;;7.07;4.38;;;23.90;99.90;;;;;;5015284;28;20089;-79
2021/06/19 01:37:16;;;;;;;11.18;4.32;;;24.00;99.90;;;;;;5016367;28;20144;-77
2021/06/19 01:39:43;;;;;;;12.32;4.15;;;23.90;99.90;;;;;;5014964;28;20050;-79
2021/06/19 01:42:12;;;;;;;6.85;4.40;;;23.90;99.90;;;;;;5014367;28;20134;-78
2021/06/19 01:44:39;;;;;;;9.93;4.20;;;23.90;99.90;;;;;;5016172;28;20499;-81
2021/06/19 01:47:06;;;;;;;6.72;4.47;;;23.90;99.90;;;;;;5017243;28;20125;-82
2021/06/19 01:49:33;;;;;;;9.85;4.78;;;23.80;99.90;;;;;;5017477;28;20105;-80
2021/06/19 01:52:00;;;;;;;10.02;4.88;;;23.80;99.90;;;;;;5016877;28;20076;-80
2021/06/19 01:54:37;;;;;;;8.00;4.20;;;23.60;99.90;;;;;;5016311;28;20538;-81
2021/06/19 01:57:05;;;;;;;10.20;4.55;;;23.60;99.90;;;;;;5017380;28;20505;-80
2021/06/19 01:59:33;;;;;;;9.30;4.57;;;23.60;99.90;;;;;;5016350;28;20161;-78
2021/06/19 02:02:01;;;;;;;10.40;4.55;;;23.60;99.90;;;;;;5017531;28;20088;-81
2021/06/19 02:04:27;;;;;;;6.43;4.40;;;23.50;99.90;;;;;;5017131;28;20220;-80
2021/06/19 02:06:54;;;;;;;10.07;4.55;;;23.50;99.90;;;;;;5017095;28;20473;-79
2021/06/19 02:09:21;;;;;;;5.95;4.47;;;23.50;99.90;;;;;;5017089;28;20062;-80
2021/06/19 02:11:48;;;;;;;9.48;4.65;;;23.50;99.90;;;;;;5017520;28;20122;-80
2021/06/19 02:14:16;;;;;;;11.98;4.90;;;23.50;99.90;;;;;;5016841;28;20119;-80
2021/06/19 02:16:45;;;;;;;5.20;4.32;;;23.50;99.90;;;;;;5016102;28;20128;-79
2021/06/19 02:19:12;;;;;;;5.80;4.35;;;23.50;99.90;;;;;;5013958;28;20058;-79
2021/06/19 02:21:39;;;;;;;6.88;4.40;;;23.40;99.90;;;;;;5017489;28;20073;-79
2021/06/19 02:24:07;;;;;;;7.22;4.20;;;23.40;99.90;;;;;;5019216;28;20114;-80
2021/06/19 02:26:34;;;;;;;7.10;4.60;;;23.40;99.90;;;;;;5016403;28;20077;-80
2021/06/19 02:29:00;;;;;;;11.27;4.72;;;23.30;99.90;;;;;;5016210;28;20057;-79
2021/06/19 02:31:27;;;;;;;7.85;4.22;;;23.20;99.90;;;;;;5015210;28;20078;-79
2021/06/19 02:33:55;;;;;;;11.38;4.75;;;23.10;99.90;;;;;;5016069;28;20076;-79
2021/06/19 02:36:22;;;;;;;9.55;4.38;;;23.00;99.90;;;;;;5016189;28;20137;-79
2021/06/19 02:38:50;;;;;;;7.72;4.45;;;22.90;99.90;;;;;;5015297;28;20140;-79
2021/06/19 02:41:17;;;;;;;7.97;5.05;;;22.90;99.90;;;;;;5018163;28;20125;-79
2021/06/19 02:50:19;;;;;;;8.93;4.25;;;22.90;99.90;;;;;;4976692;28;20368;-84
2021/06/19 02:56:19;;;;;;;10.77;4.57;;;22.80;99.90;;;;;;4945674;28;20096;-85
2021/06/19 02:58:46;;;;;;;7.80;4.25;;;22.80;99.90;;;;;;4968834;28;20047;-84
2021/06/19 03:01:13;;;;;;;7.25;4.03;;;22.80;99.90;;;;;;4979330;28;20086;-84
2021/06/19 03:03:40;;;;;;;6.38;3.75;;;22.70;99.90;;;;;;4980863;28;20086;-84
2021/06/19 03:06:08;;;;;;;4.47;4.07;;;22.70;99.90;;;;;;4981280;28;20165;-82
2021/06/19 03:08:35;;;;;;;5.97;4.22;;;22.70;99.90;;;;;;4981260;28;20082;-83
2021/06/19 03:11:04;;;;;;;9.60;4.03;;;22.80;99.90;;;;;;4979624;28;20202;-81
2021/06/19 03:13:31;;;;;;;8.20;3.80;;;22.80;99.90;;;;;;4979907;28;20057;-81
2021/06/19 03:15:58;;;;;;;7.20;3.90;;;22.70;99.90;;;;;;4980868;28;20133;-85
2021/06/19 03:18:25;;;;;;;6.95;4.20;;;22.70;99.90;;;;;;4980566;28;20075;-84
2021/06/19 03:20:54;;;;;;;6.10;3.70;;;22.70;99.90;;;;;;4981373;28;20098;-84
2021/06/19 03:23:23;;;;;;;6.68;3.88;;;22.60;99.90;;;;;;4980672;28;20051;-85
2021/06/19 03:25:51;;;;;;;5.57;3.70;;;22.60;99.90;;;;;;4980737;28;20519;-84
2021/06/19 03:28:18;;;;;;;4.43;3.50;;;22.60;99.90;;;;;;4980067;28;20420;-84
2021/06/19 03:30:47;;;;;;;6.03;4.10;;;22.60;99.90;;;;;;4981127;28;20057;-83
2021/06/19 03:33:15;;;;;;;6.82;3.88;;;22.60;99.90;;;;;;4982690;28;20086;-84
2021/06/19 03:35:43;;;;;;;6.72;4.47;;;22.60;99.90;;;;;;4983934;28;20100;-82
2021/06/19 03:38:11;;;;;;;4.95;4.03;;;22.60;99.90;;;;;;4979599;28;20070;-82
2021/06/19 03:40:40;;;;;;;8.77;4.22;;;22.50;99.90;;;;;;4978920;28;20463;-82
2021/06/19 03:43:09;;;;;;;5.15;4.22;;;22.50;99.90;;;;;;4979649;28;20051;-82
2021/06/19 03:45:37;;;;;;;6.32;4.00;;;22.40;99.90;;;;;;4979386;28;20590;-82
2021/06/19 03:48:05;;;;;;;10.20;4.30;;;22.40;99.90;;;;;;4978730;28;20062;-82
2021/06/19 03:50:32;;;;;;;5.90;3.70;;;22.40;99.90;;;;;;4982395;28;20461;-82
2021/06/19 03:53:00;;;;;;;6.22;3.97;;;22.40;99.90;;;;;;4981590;28;20084;-82
2021/06/19 03:55:28;;;;;;;10.15;3.95;;;22.30;99.90;;;;;;4981230;28;20075;-82
2021/06/19 03:57:57;;;;;;;5.57;3.65;;;22.30;99.90;;;;;;4981845;28;20137;-82
2021/06/19 04:00:25;;;;;;;4.63;3.72;;;22.30;99.90;;;;;;4982831;28;20058;-83
2021/06/19 04:02:52;;;;;;;4.07;3.67;;;22.20;99.90;;;;;;4984718;28;20074;-80
2021/06/19 04:05:19;;;;;;;5.80;3.97;;;22.30;99.90;;;;;;4982391;28;20134;-81
2021/06/19 04:07:46;;;;;;;5.70;3.65;;;22.50;99.90;;;;;;4984888;28;20106;-86
2021/06/19 04:10:15;;;;;;;5.97;3.67;;;22.90;99.90;;;;;;4987122;28;20168;-84
2021/06/19 04:12:42;;;;;;;6.88;3.80;;;23.60;99.90;;;;;;4985860;28;20464;-85
2021/06/19 04:15:27;;;;;;;4.45;3.28;;;24.50;99.90;;;;;;4987392;28;20098;-83
2021/06/19 04:18:03;;;;;;;5.78;3.00;;;25.30;99.90;;;;;;4989912;28;20702;-84
2021/06/19 04:20:31;;;;;;;5.47;3.10;;;26.10;99.90;;;;;;4986061;28;20050;-83
2021/06/19 04:22:58;;;;;;;5.93;3.30;;;26.50;99.90;;;;;;4983056;28;20055;-84
2021/06/19 04:25:25;;;;;;;4.07;3.45;;;27.10;99.90;;;;;;4981191;28;20046;-84
2021/06/19 04:27:53;;;;;;;8.25;3.42;;;27.80;99.90;;;;;;4981386;28;20063;-84
2021/06/19 04:30:23;;;;;;;3.22;2.92;;;28.40;99.90;;;;;;4982824;28;20051;-85
2021/06/19 04:32:53;;;;;;;3.10;2.85;;;28.90;99.90;;;;;;4991357;28;20085;-86
2021/06/19 04:35:56;;;;;;;4.45;3.03;;;29.00;99.90;;;;;;4990598;28;20435;-86
2021/06/19 04:42:14;;;;;;;6.45;3.30;;;28.80;99.90;;;;;;4892807;29;20056;-83
2021/06/19 04:52:13;;;;;;;5.65;3.40;;;27.60;99.90;;;;;;4949527;29;20106;-84
2021/06/19 05:22:22;;;;;;;5.43;2.90;;;28.20;99.90;;;;;;4866048;29;20057;-82
2021/06/19 05:36:02;;;;;;;4.45;2.67;;;30.30;99.90;;;;;;4926138;28;20114;-83
2021/06/19 05:45:26;;;;;;;5.47;3.10;;;31.40;99.90;;;;;;4896345;28;20146;-80
2021/06/19 05:48:18;;;;;;;5.07;2.80;;;31.50;99.90;;;;;;4987942;28;20090;-83
2021/06/19 05:54:42;;;;;;;4.60;2.90;;;31.50;99.90;;;;;;5048102;28;20497;-83
2021/06/19 05:58:00;;;;;;;3.60;3.25;;;31.10;99.90;;;;;;5043392;28;20101;-84
2021/06/19 06:01:22;;;;;;;8.77;3.10;;;31.20;99.90;;;;;;4985373;28;20058;-82
2021/06/19 06:03:51;;;;;;;4.78;3.03;;;31.30;99.90;;;;;;5015117;28;20037;-81
2021/06/19 06:12:58;;;;;;;3.90;3.10;;;30.70;99.90;;;;;;4992943;28;20061;-81
2021/06/19 06:15:26;;;;;;;4.43;2.40;;;30.70;99.90;;;;;;5050939;28;20046;-84
2021/06/19 06:17:53;;;;;;;3.95;2.78;;;30.60;99.90;;;;;;5052475;28;20049;-85
2021/06/19 06:20:59;;;;;;;7.45;2.90;;;30.90;99.90;;;;;;5052683;28;20050;-83
2021/06/19 06:26:39;;;;;;;;;;;30.50;99.90;;;;;;5052004;28;20053;-83
2021/06/19 06:33:08;;;;;;;3.35;2.60;;;30.40;99.90;;;;;;5049073;28;20061;-83
2021/06/19 06:49:48;;;;;;;4.22;3.08;;;31.40;99.90;;;;;;4881435;29;20066;-84
2021/06/19 06:52:38;;;;;;;5.30;3.50;;;32.20;99.90;;;;;;5007843;28;20057;-84
2021/06/19 06:55:42;;;;;;;6.65;3.20;;;32.50;99.90;;;;;;5058501;23;20037;-83
2021/06/19 06:58:11;;;;;;;5.80;3.38;;;32.30;99.90;;;;;;5064985;28;20071;-83
2021/06/19 07:00:37;;;;;;;3.80;3.35;;;32.50;99.90;;;;;;5065942;28;20044;-82
2021/06/19 07:03:06;;;;;;;3.22;2.90;;;32.70;99.90;;;;;;5067450;28;20258;-80
2021/06/19 07:12:28;;;;;;;6.60;3.25;;;33.00;99.90;;;;;;5000030;28;20054;-83
2021/06/19 07:15:08;;;;;;;5.78;3.38;;;33.40;99.90;;;;;;4999119;28;20078;-83
2021/06/19 07:17:47;;;;;;;6.50;3.28;;;33.80;99.90;;;;;;5063275;28;20053;-82
2021/06/19 07:36:08;;;;;;;5.93;3.60;;;34.60;99.90;;;;;;5090860;22;20045;-83
2021/06/19 07:41:19;;;;;;;4.72;3.20;;;34.30;99.90;;;;;;5069721;28;20049;-84
2021/06/19 07:44:11;;;;;;;5.82;3.20;;;34.60;99.90;;;;;;5069411;28;20053;-82
2021/06/19 07:46:38;;;;;;;;;;;34.60;99.90;;;;;;5069355;28;20060;-81
2021/06/19 07:52:17;;;;;;;4.82;3.47;;;34.10;99.90;;;;;;5022613;28;20065;-81
2021/06/19 07:54:54;;;;;;;7.93;3.83;;;34.30;99.90;;;;;;5062839;28;20091;-80
2021/06/19 07:57:26;;;;;;;5.65;3.50;;;34.30;99.90;;;;;;5063546;28;20056;-83
2021/06/19 08:00:03;;;;;;;7.43;3.47;;;33.80;99.90;;;;;;5063238;28;20072;-82
2021/06/19 08:02:30;;;;;;;4.30;3.58;;;34.00;99.90;;;;;;5063299;28;20049;-79
2021/06/19 08:04:57;;;;;;;4.43;3.35;;;33.90;99.90;;;;;;5056547;28;20084;-81
2021/06/19 08:07:25;;;;;;;4.18;3.42;;;33.80;99.90;;;;;;5058573;28;20150;-84
2021/06/19 08:09:52;;;;;;;6.22;3.78;;;33.70;99.90;;;;;;5060357;28;20076;-83
2021/06/19 08:12:19;;;;;;;4.40;3.65;;;33.60;99.90;;;;;;5057490;28;20132;-85
2021/06/19 08:14:45;;;;;;;4.95;3.42;;;33.30;99.90;;;;;;5057691;28;20052;-83
2021/06/19 08:17:16;;;;;;;6.18;3.45;;;33.10;99.90;;;;;;5057653;28;20131;-84
2021/06/19 08:19:45;;;;;;;5.27;4.23;;;33.30;99.90;;;;;;5058955;28;20052;-85
2021/06/19 08:22:12;;;;;;;6.35;3.90;;;33.60;99.90;;;;;;5058407;28;20049;-83
2021/06/19 08:24:40;;;;;;;7.93;3.63;;;33.70;99.90;;;;;;5058717;28;20113;-84
2021/06/19 08:27:08;;;;;;;7.25;4.13;;;33.40;99.90;;;;;;5059645;28;20064;-84
2021/06/19 08:29:35;;;;;;;4.65;3.65;;;33.40;99.90;;;;;;5059926;28;20091;-84
2021/06/19 08:32:02;;;;;;;5.90;3.33;;;33.70;99.90;;;;;;5066833;28;20076;-82
2021/06/19 08:34:29;;;;;;;6.43;3.50;;;33.70;99.90;;;;;;5076889;28;20044;-83
2021/06/19 08:36:56;;;;;;;5.20;3.40;;;33.50;99.90;;;;;;5079879;28;20048;-81
2021/06/19 08:39:23;;;;;;;5.40;3.30;;;33.50;99.90;;;;;;5084835;28;20055;-82
2021/06/19 08:41:55;;;;;;;4.07;3.33;;;33.60;99.90;;;;;;5084606;28;20073;-82
2021/06/19 08:44:23;;;;;;;4.63;3.30;;;34.10;99.90;;;;;;5083465;28;20040;-83
2021/06/19 08:46:51;;;;;;;3.90;3.28;;;34.30;99.90;;;;;;5072703;28;20045;-82
2021/06/19 08:49:19;;;;;;;10.02;3.90;;;34.30;99.90;;;;;;5070574;28;20129;-81
2021/06/19 08:51:50;;;;;;;4.00;3.20;;;34.10;99.90;;;;;;5058716;28;20071;-83
2021/06/19 08:54:51;;;;;;;6.15;3.60;;;34.00;99.90;;;;;;5063109;28;20064;-84
2021/06/19 08:57:25;;;;;;;5.28;3.17;;;34.20;99.80;;;;;;5060974;28;20135;-83
2021/06/19 09:00:03;;;;;;;6.30;3.30;;;34.00;99.90;;;;;;5064149;28;20045;-84
2021/06/19 09:02:39;;;;;;;3.80;3.35;;;34.20;99.50;;;;;;5062272;28;20045;-84
2021/06/19 09:05:09;;;;;;;5.32;3.35;;;34.40;98.70;;;;;;5057277;28;20067;-82
2021/06/19 09:07:52;;;;;;;4.72;2.92;;;34.60;98.80;;;;;;5062568;28;20076;-84
2021/06/19 09:10:24;;;;;;;6.80;3.05;;;34.00;99.60;;;;;;5062268;28;20116;-83
2021/06/19 09:13:05;;;;;;;3.70;2.95;;;34.20;99.30;;;;;;5061272;28;20045;-84
2021/06/19 09:15:34;;;;;;;6.03;3.17;;;33.90;99.90;;;;;;5069628;28;20056;-84
2021/06/19 09:18:10;;;;;;;4.72;3.03;;;33.90;98.70;;;;;;5069818;28;20049;-84
2021/06/19 09:20:41;;;;;;;5.22;3.20;;;33.70;99.00;;;;;;5069050;28;20056;-84
2021/06/19 09:23:19;;;;;;;7.33;3.30;;;33.90;99.70;;;;;;5068297;28;20116;-85
2021/06/19 09:26:16;;;;;;;4.55;3.47;;;33.90;99.40;;;;;;5066913;28;20287;-84
2021/06/19 09:29:15;;;;;;;5.57;3.50;;;33.90;99.30;;;;;;5038206;28;20460;-81
2021/06/19 09:32:12;;;;;;;4.50;3.22;;;33.20;98.90;;;;;;5059645;28;20041;-83
2021/06/19 09:34:45;;;;;;;6.68;4.03;;;32.90;99.70;;;;;;5059859;28;20045;-81
2021/06/19 09:37:17;;;;;;;5.90;3.80;;;32.30;99.90;;;;;;5067838;28;20068;-83
2021/06/19 09:39:50;;;;;;;6.80;3.17;;;32.40;99.90;;;;;;5055951;28;20053;-81
2021/06/19 09:45:19;;;;;;;5.75;3.33;;;32.60;99.90;;;;;;5058320;28;20088;-84
2021/06/19 09:48:25;;;;;;;4.18;3.20;;;32.50;99.50;;;;;;5060022;28;20079;-83
2021/06/19 09:51:28;;;;;;;7.55;3.33;;;32.20;99.70;;;;;;5059437;28;20041;-82
2021/06/19 09:54:21;;;;;;;5.47;3.00;;;31.40;99.90;;;;;;5060276;28;20072;-83
2021/06/19 09:56:53;;;;;;;6.88;3.90;;;31.10;99.90;;;;;;5055538;28;20049;-83
2021/06/19 09:59:31;;;;;;;4.03;3.20;;;31.40;99.90;;;;;;5057651;28;20041;-83
2021/06/19 10:02:06;;;;;;;4.72;3.10;;;31.80;99.90;;;;;;5058146;28;20045;-84
2021/06/19 10:04:35;;;;;;;4.20;3.10;;;32.00;99.10;;;;;;5058946;28;20080;-84
2021/06/19 10:07:06;;;;;;;4.45;2.92;;;31.70;99.70;;;;;;5058207;28;20044;-85
2021/06/19 10:09:34;;;;;;;4.07;2.92;;;31.10;99.90;;;;;;5060357;28;20045;-85
2021/06/19 10:12:04;;;;;;;5.00;3.00;;;30.80;99.90;;;;;;5049101;28;20073;-85
2021/06/19 10:14:32;;;;;;;5.68;3.17;;;30.80;99.90;;;;;;5048334;28;20053;-84
2021/06/19 10:17:02;;;;;;;6.63;2.90;;;30.70;99.90;;;;;;5049870;28;20061;-84
2021/06/19 10:19:31;;;;;;;15.30;3.40;;;30.70;99.90;;;;;;5049650;28;20049;-85
2021/06/19 10:22:00;;;;;;;6.07;2.70;;;30.80;99.90;;;;;;5062689;28;20049;-84
2021/06/19 10:24:27;;;;;;;5.47;2.90;;;30.60;99.90;;;;;;5057404;28;20053;-84
2021/06/19 10:26:55;;;;;;;8.55;2.85;;;30.60;99.90;;;;;;5055985;28;20041;-82
2021/06/19 10:29:30;;;;;;;6.60;3.17;;;30.50;99.90;;;;;;5053024;28;20060;-82
2021/06/19 10:32:01;;;;;;;3.35;2.33;;;30.50;99.90;;;;;;5056701;28;20072;-83
2021/06/19 10:34:30;;;;;;;7.53;3.40;;;30.80;99.90;;;;;;5056793;28;20104;-82
2021/06/19 10:37:01;;;;;;;4.88;2.70;;;30.80;99.90;;;;;;5052870;28;20085;-86
2021/06/19 10:39:35;;;;;;;3.78;3.00;;;30.90;99.90;;;;;;5052446;28;20057;-81
2021/06/19 10:42:06;;;;;;;3.20;2.65;;;31.10;99.90;;;;;;5054215;28;20545;-83
2021/06/19 10:44:55;;;;;;;6.32;3.22;;;31.30;99.90;;;;;;5055357;28;20047;-83
2021/06/19 10:47:24;;;;;;;4.95;2.75;;;31.20;99.90;;;;;;5054962;28;20049;-80
2021/06/19 10:49:52;;;;;;;4.00;2.83;;;31.10;99.90;;;;;;5051221;28;20049;-82
2021/06/19 10:52:30;;;;;;;5.13;2.97;;;31.10;99.90;;;;;;5060377;28;20049;-82
2021/06/19 10:55:19;;;;;;;4.45;2.50;;;31.30;99.90;;;;;;5054527;28;20049;-82
2021/06/19 10:57:49;;;;;;;4.30;3.03;;;31.30;99.90;;;;;;5058495;28;20055;-81
2021/06/19 11:00:45;;;;;;;5.40;3.33;;;31.30;99.90;;;;;;5067057;28;20532;-80
2021/06/19 11:03:13;;;;;;;3.38;2.80;;;31.20;99.90;;;;;;5016435;28;20687;-81
2021/06/19 11:05:57;;;;;;;3.42;2.70;;;31.30;99.90;;;;;;5062373;28;20064;-80
2021/06/19 11:08:26;;;;;;;5.50;2.97;;;31.50;99.90;;;;;;5067098;28;20512;-80
2021/06/19 11:11:11;;;;;;;3.45;2.92;;;31.50;99.90;;;;;;5057091;28;20041;-82
2021/06/19 11:13:48;;;;;;;5.82;3.08;;;31.70;99.50;;;;;;5058942;28;20052;-81
2021/06/19 11:16:50;;;;;;;3.00;2.80;;;31.70;99.70;;;;;;5056508;28;20041;-81
2021/06/19 11:19:33;;;;;;;;;;;31.70;99.60;;;;;;5063309;28;20049;-82
2021/06/19 11:22:40;;;;;;;6.30;2.72;;;31.60;99.90;;;;;;5055924;28;19921;-81
2021/06/19 11:28:30;;;;;;;6.03;3.00;;;31.20;99.50;;;;;;5020294;28;20046;-83
2021/06/19 11:31:03;;;;;;;4.95;3.13;;;31.30;99.90;;;;;;5018924;28;20042;-81
2021/06/19 11:33:57;;;;;;;3.70;3.03;;;31.20;99.90;;;;;;5012131;28;20054;-83
2021/06/19 11:36:38;;;;;;;4.53;2.90;;;31.30;99.80;;;;;;4992399;28;20081;-84
2021/06/19 11:39:11;;;;;;;4.07;3.03;;;31.40;99.90;;;;;;4992142;28;20047;-82
2021/06/19 11:41:43;;;;;;;7.38;3.33;;;31.50;99.90;;;;;;4991813;28;20062;-82
2021/06/19 11:44:13;;;;;;;4.95;3.05;;;31.50;99.20;;;;;;4990514;28;20051;-81
2021/06/19 11:46:39;;;;;;;3.85;3.15;;;31.50;98.70;;;;;;4989576;28;20062;-82
2021/06/19 11:49:09;;;;;;;4.97;3.10;;;31.50;99.60;;;;;;4990311;28;20054;-81
2021/06/19 11:51:37;;;;;;;3.15;2.85;;;31.70;99.90;;;;;;4991269;28;20065;-82
2021/06/19 11:54:06;;;;;;;5.38;3.13;;;31.80;99.90;;;;;;4990023;28;20058;-83
2021/06/19 11:56:33;;;;;;;7.03;3.30;;;32.10;98.70;;;;;;5015559;28;20050;-82
2021/06/19 11:59:02;;;;;;;5.20;3.10;;;32.20;99.80;;;;;;5028489;28;20145;-81
2021/06/19 12:01:36;;;;;;;3.95;3.17;;;32.30;99.40;;;;;;5006925;28;20533;-82
2021/06/19 12:04:05;;;;;;;4.22;3.58;;;32.20;99.90;;;;;;5004122;28;20110;-81
2021/06/19 12:06:33;;;;;;;4.50;3.00;;;31.70;99.90;;;;;;5006391;28;20050;-79
2021/06/19 12:09:00;;;;;;;6.22;3.30;;;31.40;99.90;;;;;;5003988;28;20222;-81
2021/06/19 12:11:28;;;;;;;4.30;3.22;;;31.40;99.90;;;;;;5005609;28;20046;-83
2021/06/19 12:13:56;;;;;;;4.88;2.95;;;31.50;99.90;;;;;;5007232;28;20042;-80
2021/06/19 12:16:30;;;;;;;7.72;3.20;;;31.70;99.90;;;;;;5008512;28;20046;-79
2021/06/19 12:19:06;;;;;;;2.97;2.78;;;31.70;99.90;;;;;;5006751;28;20056;-85
2021/06/19 12:21:36;;;;;;;4.70;3.10;;;31.80;99.90;;;;;;5007419;28;20050;-81
2021/06/19 12:24:06;;;;;;;4.47;2.92;;;31.80;99.90;;;;;;5010086;28;20066;-80
2021/06/19 12:26:39;;;;;;;3.40;3.10;;;31.60;99.90;;;;;;5016272;28;20114;-82
2021/06/19 12:29:09;;;;;;;6.20;3.30;;;31.30;99.90;;;;;;5015402;28;20046;-82
2021/06/19 12:31:45;;;;;;;5.93;3.63;;;31.50;99.90;;;;;;5015026;28;20058;-83
2021/06/19 12:36:56;;;;;;;4.70;3.38;;;31.70;99.90;;;;;;5014756;28;20079;-82
2021/06/19 12:39:24;;;;;;;5.47;3.30;;;31.70;99.90;;;;;;5020911;28;20046;-81
2021/06/19 12:41:51;;;;;;;3.70;3.20;;;31.90;99.90;;;;;;5018312;28;20076;-82
2021/06/19 12:44:32;;;;;;;5.25;3.60;;;31.70;99.90;;;;;;5015354;28;20601;-81
2021/06/19 12:47:16;;;;;;;4.28;3.20;;;31.70;99.90;;;;;;4986683;28;20101;-81
2021/06/19 12:49:56;;;;;;;6.05;3.50;;;31.80;99.90;;;;;;4996579;28;20455;-78
2021/06/19 12:52:25;;;;;;;6.97;3.00;;;31.70;99.90;;;;;;5005650;28;20054;-79
2021/06/19 12:55:08;;;;;;;5.68;3.42;;;31.80;99.90;;;;;;5002566;28;20468;-79
2021/06/19 12:57:35;;;;;;;4.32;3.28;;;32.20;99.90;;;;;;5004298;28;20112;-79
2021/06/19 13:00:02;;;;;;;3.88;3.30;;;32.30;99.90;;;;;;5002491;28;20113;-81
2021/06/19 13:02:30;;;;;;;4.03;3.10;;;32.30;99.90;;;;;;5005711;28;20092;-80
2021/06/19 13:04:57;;;;;;;3.47;3.17;;;32.30;99.90;;;;;;5007296;28;20050;-80
2021/06/19 13:07:31;;;;;;;6.03;3.30;;;32.40;99.90;;;;;;5008214;28;20066;-80
2021/06/19 13:09:58;;;;;;;5.57;3.22;;;32.50;99.90;;;;;;5007592;28;20046;-79
2021/06/19 13:12:26;;;;;;;6.15;3.38;;;32.40;99.90;;;;;;5006329;28;20058;-79
2021/06/19 13:15:08;;;;;;;6.82;3.40;;;32.40;99.90;;;;;;5006690;28;20058;-80
2021/06/19 13:17:45;;;;;;;3.67;3.17;;;32.30;99.90;;;;;;5008261;28;20054;-78
2021/06/19 13:20:31;;;;;;;8.18;5.65;;;32.30;99.90;;;;;;5002116;28;20046;-79
2021/06/19 13:23:09;;;;;;;4.10;3.30;;;32.30;99.90;;;;;;5005410;28;20106;-80
2021/06/19 13:26:08;;;;;;;4.68;3.60;;;32.50;99.90;;;;;;5003546;28;20089;-78
2021/06/19 13:28:42;;;;;;;6.72;3.25;;;32.60;99.90;;;;;;5000480;28;20395;-79
2021/06/19 13:31:11;;;;;;;5.97;3.72;;;32.60;99.90;;;;;;5002902;28;20081;-79
2021/06/19 13:33:48;;;;;;;5.03;4.25;;;32.70;99.90;;;;;;5007919;28;20050;-80
2021/06/19 13:36:24;;;;;;;4.93;3.55;;;32.80;99.90;;;;;;5001725;28;20082;-81
2021/06/19 13:38:59;;;;;;;5.50;3.30;;;32.90;99.90;;;;;;5002661;28;20042;-78
2021/06/19 13:41:45;;;;;;;3.95;3.20;;;32.80;99.90;;;;;;5000709;28;20114;-82
2021/06/19 13:44:14;;;;;;;3.50;3.20;;;32.70;99.90;;;;;;5002602;28;20082;-80
2021/06/19 13:46:41;;;;;;;6.07;3.60;;;32.50;99.90;;;;;;5004117;28;20126;-82
2021/06/19 13:49:09;;;;;;;4.80;3.30;;;32.20;99.90;;;;;;5003971;28;20058;-80
2021/06/19 13:51:37;;;;;;;6.75;3.67;;;31.90;99.90;;;;;;5004869;28;20514;-81
2021/06/19 13:54:04;;;;;;;7.53;3.55;;;31.80;99.90;;;;;;5004116;28;20190;-81
2021/06/19 13:56:32;;;;;;;5.68;3.33;;;31.80;99.90;;;;;;5004039;28;20077;-83
2021/06/19 13:58:58;;;;;;;5.10;3.47;;;31.90;99.90;;;;;;5006858;28;20057;-81
2021/06/19 14:01:43;;;;;;;7.70;3.40;;;31.90;99.90;;;;;;5006614;28;20109;-82
2021/06/19 14:07:24;;;;;;;7.88;3.28;;;32.10;99.90;;;;;;4993429;28;20054;-80
2021/06/19 14:10:24;;;;;;;6.15;3.45;;;32.00;99.90;;;;;;5002998;28;20038;-82
2021/06/19 14:13:10;;;;;;;4.22;3.40;;;31.80;99.90;;;;;;5002828;28;20626;-79
2021/06/19 14:15:37;;;;;;;4.57;3.67;;;31.50;99.90;;;;;;4999148;28;20065;-80
2021/06/19 14:18:04;;;;;;;4.60;3.60;;;31.10;99.90;;;;;;5003358;28;20061;-81
2021/06/19 14:20:33;;;;;;;3.90;3.33;;;31.10;99.90;;;;;;5003939;28;20082;-80
2021/06/19 14:23:05;;;;;;;6.35;3.45;;;31.20;99.90;;;;;;5003229;28;20100;-83
2021/06/19 14:25:32;;;;;;;5.90;3.78;;;31.40;99.90;;;;;;5003081;28;20468;-83
2021/06/19 14:28:02;;;;;;;7.22;3.90;;;31.40;99.90;;;;;;5003665;28;20054;-81
2021/06/19 14:30:31;;;;;;;8.73;4.55;;;31.30;99.90;;;;;;5003451;28;20051;-82
2021/06/19 14:32:58;;;;;;;6.32;4.00;;;31.30;99.90;;;;;;5008060;28;20069;-79
2021/06/19 14:35:25;;;;;;;6.65;4.38;;;31.40;99.90;;;;;;5001169;28;20129;-81
2021/06/19 14:37:54;;;;;;;5.95;3.75;;;31.30;99.90;;;;;;4999062;28;20661;-80
2021/06/19 14:40:34;;;;;;;8.00;3.78;;;31.20;99.90;;;;;;4998558;28;20050;-79
2021/06/19 14:43:01;;;;;;;6.00;3.70;;;31.30;99.90;;;;;;4998266;28;20088;-79
2021/06/19 14:45:34;;;;;;;6.72;3.75;;;31.10;99.90;;;;;;4994210;28;20490;-79
2021/06/19 14:48:01;;;;;;;5.10;4.18;;;31.10;99.90;;;;;;5002114;28;20042;-79
2021/06/19 14:50:28;;;;;;;11.13;6.75;;;31.20;99.90;;;;;;5020198;28;20061;-81
2021/06/19 14:52:58;;;;;;;9.98;7.53;;;31.20;99.90;;;;;;5009299;28;20061;-82
2021/06/19 14:55:25;;;;;;;6.90;4.63;;;31.20;99.90;;;;;;5003744;28;20074;-80
2021/06/19 14:58:20;;;;;;;;;;;;;;;;;;;;;
2021/06/19 15:00:52;;;;;;;8.23;4.25;;;31.40;99.90;;;;;;5000187;28;20042;-80
2021/06/19 15:03:19;;;;;;;;;;;31.50;99.90;;;;;;5005808;28;20109;-79
2021/06/19 15:05:48;;;;;;;7.80;4.53;;;31.40;99.90;;;;;;5004663;28;19922;-80
2021/06/19 15:08:37;;;;;;;;;;;;;;;;;;;;;
2021/06/19 15:11:13;;;;;;;12.32;8.38;;;31.40;99.90;;;;;;4989442;28;20114;-80
2021/06/19 15:13:43;;;;;;;8.55;4.95;;;31.30;99.90;;;;;;5005196;28;20050;-81
2021/06/19 15:16:12;;;;;;;10.98;4.43;;;31.30;99.90;;;;;;5008048;28;20054;-82
2021/06/19 15:18:41;;;;;;;7.10;4.47;;;31.20;99.90;;;;;;5008328;28;20060;-81
2021/06/19 15:21:08;;;;;;;5.03;4.30;;;31.10;99.90;;;;;;5007564;28;20058;-81
2021/06/19 15:23:37;;;;;;;6.47;4.00;;;31.10;99.90;;;;;;5036023;22;20050;-79
2021/06/19 15:26:04;;;;;;;9.85;4.00;;;31.20;99.90;;;;;;5028020;28;20053;-78
2021/06/19 15:28:32;;;;;;;6.50;4.00;;;31.10;99.90;;;;;;5030988;28;20120;-81
2021/06/19 15:31:03;;;;;;;5.65;4.30;;;31.20;99.90;;;;;;5030250;28;20056;-81
2021/06/19 15:33:30;;;;;;;6.32;3.75;;;31.10;99.90;;;;;;5023216;28;20049;-79